Time;durP1;ratioP1;P1;durP2;ratioP2;P2;SDS_P1;SDS_P2;PMS_P1;PMS_P2;Temp;Humidity;BMP_temperature;BMP_pressure;BME280_temperature;BME280_humidity;BME280_pressure;Samples;Min_cycle;Max_cycle;Signal;HPM_P1;HPM_P2
2022/09/17 00:00:21;;;;;;;1.55;0.20;;;;;;;12.30;74.54;101532.38;5039114;27;96641;-30
2022/09/17 00:02:55;;;;;;;0.75;0.35;;;;;;;12.31;74.74;101539.53;5057859;27;96821;-30
2022/09/17 00:05:22;;;;;;;0.47;0.10;;;;;;;12.29;73.85;101554.19;5039240;27;100833;-30
2022/09/17 00:07:49;;;;;;;2.10;0.57;;;;;;;12.29;74.12;101555.06;5057364;27;99245;-31
2022/09/17 00:10:14;;;;;;;1.95;0.52;;;;;;;12.28;74.02;101564.19;5057826;27;96444;-29
2022/09/17 00:12:40;;;;;;;2.55;0.40;;;;;;;12.26;74.88;101546.22;5057494;27;96762;-30
2022/09/17 00:15:06;;;;;;;4.43;0.30;;;;;;;12.25;74.95;101541.72;5038706;27;100912;-30
2022/09/17 00:17:31;;;;;;;2.40;0.30;;;;;;;12.25;74.65;101552.59;5057788;27;97330;-30
2022/09/17 00:19:56;;;;;;;3.67;0.38;;;;;;;12.22;75.22;101545.50;5057116;27;103411;-30
2022/09/17 00:22:22;;;;;;;0.45;0.15;;;;;;;12.28;75.22;101552.44;5057229;27;97398;-30
2022/09/17 00:24:47;;;;;;;4.68;0.52;;;;;;;12.25;75.14;101547.16;5056439;27;99309;-30
2022/09/17 00:27:12;;;;;;;1.45;0.57;;;;;;;12.26;75.29;101549.81;5056859;27;108634;-30
2022/09/17 00:29:38;;;;;;;0.73;0.30;;;;;;;12.26;75.26;101552.53;5057328;27;96502;-31
2022/09/17 00:32:03;;;;;;;0.80;0.30;;;;;;;12.29;75.70;101551.47;5057188;27;96862;-30
2022/09/17 00:34:28;;;;;;;4.78;0.40;;;;;;;12.28;76.07;101558.75;5056753;27;98991;-30
2022/09/17 00:36:54;;;;;;;0.55;0.28;;;;;;;12.29;75.68;101557.78;5057118;27;100408;-30
2022/09/17 00:39:19;;;;;;;6.43;0.73;;;;;;;12.29;76.56;101586.78;5057485;27;96577;-30
2022/09/17 00:41:44;;;;;;;2.17;0.30;;;;;;;12.16;76.18;101586.63;5057458;27;96818;-29
2022/09/17 00:44:37;;;;;;;1.65;0.35;;;;;;;12.09;76.26;101585.22;5057066;27;97927;-29
2022/09/17 00:47:03;;;;;;;0.47;0.25;;;;;;;12.03;75.74;101580.09;5056549;27;99172;-30
2022/09/17 00:49:29;;;;;;;1.77;0.30;;;;;;;11.96;75.88;101585.00;5056846;27;96493;-30
2022/09/17 00:52:06;;;;;;;2.92;0.28;;;;;;;11.92;75.83;101569.84;5037613;27;96851;-30
2022/09/17 00:54:32;;;;;;;3.65;0.30;;;;;;;11.95;76.03;101563.38;5038342;27;99339;-31
2022/09/17 00:56:58;;;;;;;0.82;0.30;;;;;;;11.96;76.00;101559.69;5038033;27;100752;-30
2022/09/17 00:59:24;;;;;;;1.23;0.30;;;;;;;11.97;75.87;101566.88;5056859;27;96788;-31
2022/09/17 01:01:49;;;;;;;1.52;0.15;;;;;;;12.00;75.77;101566.72;5038544;27;96894;-30
2022/09/17 01:04:21;;;;;;;1.70;0.17;;;;;;;12.04;75.99;101566.44;5056748;27;98263;-30
2022/09/17 01:07:02;;;;;;;0.43;0.25;;;;;;;12.04;76.10;101563.75;5056821;27;97357;-31
2022/09/17 01:09:32;;;;;;;0.40;0.10;;;;;;;12.08;75.82;101570.75;5038383;27;96660;-30
2022/09/17 01:12:12;;;;;;;0.32;0.13;;;;;;;12.09;75.79;101575.22;5056834;27;96786;-30
2022/09/17 01:15:20;;;;;;;1.92;0.43;;;;;;;12.09;76.59;101568.91;5056102;27;98106;-30
2022/09/17 01:18:02;;;;;;;1.52;0.20;;;;;;;12.10;76.47;101584.22;5019761;27;97365;-30
2022/09/17 01:20:46;;;;;;;3.25;0.20;;;;;;;12.10;75.69;101576.09;5038349;27;96571;-30
2022/09/17 01:23:39;;;;;;;3.50;0.20;;;;;;;12.10;76.80;101576.09;5056927;27;96515;-29
2022/09/17 01:26:25;;;;;;;1.70;0.35;;;;;;;12.11;76.40;101567.00;5055895;27;98047;-29
2022/09/17 01:29:35;;;;;;;0.85;0.20;;;;;;;12.11;77.11;101564.28;5056380;27;97846;-30
2022/09/17 01:32:24;;;;;;;1.20;0.32;;;;;;;12.04;76.83;101560.16;4954323;28;96869;-29
2022/09/17 01:35:14;;;;;;;4.10;0.55;;;;;;;12.02;76.92;101564.78;5038344;27;96786;-30
2022/09/17 01:38:08;;;;;;;3.42;0.05;;;;;;;12.00;77.20;101566.72;5037669;27;100972;-29
2022/09/17 01:40:55;;;;;;;1.90;0.20;;;;;;;11.93;77.17;101560.75;5056007;27;97816;-30
2022/09/17 01:43:25;;;;;;;0.70;0.22;;;;;;;11.90;77.09;101567.22;5037564;27;96601;-29
2022/09/17 01:45:59;;;;;;;0.40;0.20;;;;;;;11.89;77.45;101575.44;5037763;27;97282;-30
2022/09/17 01:48:36;;;;;;;1.90;0.00;;;;;;;11.85;77.06;101565.69;5037539;27;101679;-31
2022/09/17 01:51:07;;;;;;;0.25;0.17;;;;;;;11.81;77.54;101564.97;5037207;27;101383;-30
2022/09/17 01:53:44;;;;;;;0.45;0.20;;;;;;;11.80;77.65;101571.38;5037715;27;96722;-30
2022/09/17 01:56:15;;;;;;;1.02;0.28;;;;;;;11.80;77.77;101571.38;5056082;27;96718;-30
2022/09/17 01:58:50;;;;;;;0.40;0.20;;;;;;;11.79;77.67;101574.16;5055904;27;97279;-31
2022/09/17 02:01:20;;;;;;;0.00;0.00;;;;;;;11.77;77.98;101579.66;5055810;27;98854;-31
2022/09/17 02:04:20;;;;;;;1.20;0.15;;;;;;;11.76;77.80;101569.78;5055405;27;96548;-30
2022/09/17 02:06:53;;;;;;;0.47;0.30;;;;;;;11.69;77.83;101562.94;5033281;27;96646;-30
2022/09/17 02:09:27;;;;;;;0.45;0.15;;;;;;;11.76;77.55;101574.34;5036850;27;101098;-30
2022/09/17 02:11:59;;;;;;;1.15;0.50;;;;;;;11.76;77.59;101568.91;5036890;27;100875;-30
2022/09/17 02:14:29;;;;;;;;;;;;;;;11.81;77.81;101574.97;5037826;27;96585;-31
2022/09/17 02:17:03;;;;;;;0.10;0.10;;;;;;;11.79;77.32;101575.03;5055896;27;96853;-30
2022/09/17 02:19:33;;;;;;;0.20;0.20;;;;;;;11.81;77.27;101589.41;5036614;27;101528;-29
2022/09/17 02:22:13;;;;;;;0.88;0.38;;;;;;;11.85;77.43;101587.41;5037127;27;101544;-29
2022/09/17 02:25:03;;;;;;;2.70;0.47;;;;;;;11.86;77.60;101586.44;5037061;27;96810;-30
2022/09/17 02:27:46;;;;;;;0.32;0.15;;;;;;;11.86;77.65;101592.75;5037678;27;96696;-31
2022/09/17 02:30:13;;;;;;;0.43;0.25;;;;;;;11.86;77.86;101586.44;5036972;27;101378;-29
2022/09/17 02:32:39;;;;;;;0.25;0.13;;;;;;;11.86;77.46;101594.59;5036693;27;100902;-30
2022/09/17 02:35:05;;;;;;;2.15;0.30;;;;;;;11.85;77.71;101584.69;5054774;27;96517;-30
2022/09/17 02:37:31;;;;;;;3.08;0.47;;;;;;;11.84;77.67;101580.22;5037197;27;96889;-30
2022/09/17 02:39:56;;;;;;;2.15;0.38;;;;;;;11.84;77.46;101588.34;5055194;27;97479;-30
2022/09/17 02:42:35;;;;;;;3.05;0.40;;;;;;;11.76;77.87;101583.34;5054956;27;98780;-31
2022/09/17 02:45:09;;;;;;;0.77;0.40;;;;;;;11.76;77.42;101587.91;5036990;27;96620;-30
2022/09/17 02:47:56;;;;;;;1.90;0.32;;;;;;;11.71;77.55;101582.75;5055086;27;96836;-31
2022/09/17 02:50:33;;;;;;;4.25;0.28;;;;;;;11.63;77.87;101580.44;5036849;27;101184;-30
2022/09/17 02:53:21;;;;;;;2.00;0.35;;;;;;;11.60;78.13;101591.44;5036938;27;100859;-31
2022/09/17 02:55:58;;;;;;;2.92;0.50;;;;;;;11.60;78.02;101606.84;5055210;27;96592;-30
2022/09/17 02:58:37;;;;;;;3.00;0.63;;;;;;;11.52;78.07;101592.84;5055355;27;96491;-30
2022/09/17 03:01:08;;;;;;;1.83;0.43;;;;;;;11.53;77.39;101591.88;5054221;27;99260;-30
2022/09/17 03:03:38;;;;;;;1.70;0.32;;;;;;;11.50;76.73;101594.75;5020411;27;101391;-30
2022/09/17 03:06:05;;;;;;;4.75;0.28;;;;;;;11.53;77.03;101589.16;5036370;27;96599;-30
2022/09/17 03:08:37;;;;;;;1.20;0.50;;;;;;;11.56;77.06;101595.31;5036740;27;96818;-30
2022/09/17 03:11:04;;;;;;;;;;;;;;;11.59;77.51;101602.41;5055105;27;97961;-29
2022/09/17 03:13:30;;;;;;;0.73;0.28;;;;;;;11.58;77.12;101604.22;5036086;27;101270;-30
2022/09/17 03:15:56;;;;;;;0.80;0.32;;;;;;;11.61;77.03;101597.78;5038452;27;96595;-29
2022/09/17 03:18:22;;;;;;;0.70;0.28;;;;;;;11.58;76.90;101593.34;5058359;27;96787;-31
2022/09/17 03:20:47;;;;;;;0.50;0.10;;;;;;;11.54;76.55;101586.38;5039736;27;98847;-30
2022/09/17 03:23:13;;;;;;;2.20;0.38;;;;;;;11.52;76.66;101592.84;5058062;27;103140;-29
2022/09/17 03:25:38;;;;;;;1.05;0.40;;;;;;;11.47;77.52;101591.25;5057622;27;96815;-30
2022/09/17 03:28:03;;;;;;;2.17;0.60;;;;;;;11.43;77.44;101586.94;5057758;27;105107;-30
2022/09/17 03:30:28;;;;;;;2.70;0.25;;;;;;;11.42;77.12;101582.47;5057603;27;120364;-30
2022/09/17 03:32:54;;;;;;;1.77;0.13;;;;;;;11.44;76.97;101582.38;5057751;27;108736;-30
2022/09/17 03:35:19;;;;;;;1.15;0.15;;;;;;;11.46;76.57;101575.03;5039474;27;101044;-30
2022/09/17 03:37:46;;;;;;;2.13;0.60;;;;;;;11.46;76.62;101577.75;5058041;27;96976;-29
2022/09/17 03:40:11;;;;;;;3.60;0.20;;;;;;;11.47;76.75;101583.09;5057982;27;98005;-29
2022/09/17 03:42:37;;;;;;;0.65;0.30;;;;;;;11.43;77.14;101578.78;5058364;27;97952;-29
2022/09/17 03:45:02;;;;;;;1.10;0.20;;;;;;;11.44;76.91;101580.56;5058341;27;96585;-31
2022/09/17 03:47:28;;;;;;;0.45;0.15;;;;;;;11.40;77.08;101576.25;5058200;27;96761;-30
2022/09/17 03:49:54;;;;;;;1.75;0.20;;;;;;;11.37;76.97;101575.53;5057473;27;97353;-30
2022/09/17 03:52:20;;;;;;;0.77;0.30;;;;;;;11.36;76.95;101582.78;5039412;27;101017;-30
2022/09/17 03:54:45;;;;;;;1.58;0.28;;;;;;;11.37;77.29;101584.56;5058094;27;96731;-29
2022/09/17 03:57:10;;;;;;;0.70;0.28;;;;;;;11.40;76.55;101580.81;5057841;27;97451;-30
2022/09/17 03:59:36;;;;;;;0.75;0.32;;;;;;;11.39;76.21;101576.31;5057991;27;97380;-29
2022/09/17 04:02:23;;;;;;;3.78;0.60;;;;;;;11.42;76.85;101585.19;5057630;27;97804;-30
2022/09/17 04:04:48;;;;;;;2.85;0.68;;;;;;;11.41;76.66;101582.53;5039505;27;96767;-30
2022/09/17 04:07:13;;;;;;;9.35;0.75;;;;;;;11.41;76.55;101586.13;5057993;27;97450;-30
2022/09/17 04:09:39;;;;;;;0.45;0.13;;;;;;;11.41;76.68;101590.69;5057326;27;103826;-31
2022/09/17 04:12:04;;;;;;;1.75;0.20;;;;;;;11.39;76.87;101590.78;5056119;27;119290;-31
2022/09/17 04:14:29;;;;;;;3.78;0.35;;;;;;;11.38;76.95;101597.16;5038914;27;96744;-30
2022/09/17 04:16:57;;;;;;;6.45;0.47;;;;;;;11.39;77.06;101601.63;5057204;27;109132;-30
2022/09/17 04:19:22;;;;;;;1.13;0.30;;;;;;;11.36;76.97;101599.06;5038523;27;100899;-30
2022/09/17 04:21:47;;;;;;;0.63;0.17;;;;;;;11.36;77.21;101609.03;5057329;27;100713;-30
2022/09/17 04:24:13;;;;;;;0.30;0.15;;;;;;;11.31;77.20;101601.16;5057529;27;96713;-30
2022/09/17 04:26:38;;;;;;;2.72;0.28;;;;;;;11.25;77.37;101606.91;5057201;27;96742;-30
2022/09/17 04:29:04;;;;;;;6.40;0.38;;;;;;;11.21;77.80;101599.88;5057303;27;97886;-31
2022/09/17 04:31:29;;;;;;;0.38;0.08;;;;;;;11.22;77.63;101597.06;5057301;27;97966;-30
2022/09/17 04:33:55;;;;;;;0.32;0.10;;;;;;;11.19;77.67;101591.81;5057148;27;98905;-30
2022/09/17 04:36:20;;;;;;;0.82;0.35;;;;;;;11.16;77.73;101597.41;5057663;27;96766;-30
2022/09/17 04:38:48;;;;;;;0.20;0.10;;;;;;;11.14;77.88;101593.03;5056049;27;112671;-31
2022/09/17 04:41:14;;;;;;;0.25;0.10;;;;;;;11.13;77.98;101603.00;5038436;27;100543;-30
2022/09/17 04:43:39;;;;;;;0.95;0.20;;;;;;;11.13;78.13;101603.00;5057445;27;96472;-30
2022/09/17 04:46:04;;;;;;;0.77;0.38;;;;;;;11.12;77.81;101605.78;5056405;27;108767;-30
2022/09/17 04:48:30;;;;;;;2.40;0.63;;;;;;;11.15;77.96;101605.63;5056746;27;104071;-30
2022/09/17 04:50:55;;;;;;;2.22;0.20;;;;;;;11.16;78.09;101620.94;5056696;27;99672;-31
2022/09/17 04:53:20;;;;;;;0.32;0.20;;;;;;;11.13;77.91;101629.22;5057155;27;96643;-30
2022/09/17 04:55:46;;;;;;;2.22;0.28;;;;;;;11.15;77.75;101643.56;5057461;27;97031;-31
2022/09/17 04:58:11;;;;;;;1.20;0.43;;;;;;;11.18;77.52;101638.88;5056560;27;99458;-30
2022/09/17 05:00:36;;;;;;;0.30;0.20;;;;;;;11.19;77.63;101629.78;5056215;27;99234;-29
2022/09/17 05:03:02;;;;;;;1.00;0.28;;;;;;;11.20;77.61;101631.56;5056289;27;96546;-30
2022/09/17 05:05:28;;;;;;;4.70;0.30;;;;;;;11.24;77.82;101630.41;5056965;27;96699;-30
2022/09/17 05:07:53;;;;;;;2.60;0.63;;;;;;;11.24;77.73;101627.69;5056538;27;98522;-30
2022/09/17 05:10:20;;;;;;;4.53;0.30;;;;;;;11.23;77.72;101630.50;5056643;27;98010;-30
2022/09/17 05:12:54;;;;;;;2.75;0.35;;;;;;;11.19;77.28;101627.06;5056833;27;96648;-30
2022/09/17 05:15:22;;;;;;;0.85;0.15;;;;;;;11.19;77.19;101621.66;5038211;27;97594;-31
2022/09/17 05:17:47;;;;;;;2.50;0.22;;;;;;;11.22;77.19;101626.03;5037737;27;101113;-29
2022/09/17 05:20:14;;;;;;;1.35;0.08;;;;;;;11.20;77.08;101625.22;5056457;27;99235;-30
2022/09/17 05:22:42;;;;;;;1.85;0.32;;;;;;;11.25;76.72;101629.47;5038321;27;96513;-31
2022/09/17 05:25:07;;;;;;;0.50;0.20;;;;;;;11.26;77.03;101627.63;5056248;27;96791;-30
2022/09/17 05:27:33;;;;;;;1.42;0.20;;;;;;;11.26;77.20;101631.22;5055663;27;98011;-31
2022/09/17 05:29:58;;;;;;;4.45;0.25;;;;;;;11.27;76.67;101634.81;5055501;27;112973;-30
2022/09/17 05:32:23;;;;;;;0.52;0.25;;;;;;;11.27;76.67;101632.09;5056183;27;99697;-29
2022/09/17 05:34:49;;;;;;;3.88;0.28;;;;;;;11.29;76.76;101638.31;5056151;27;102825;-30
2022/09/17 05:37:14;;;;;;;3.47;0.20;;;;;;;11.30;77.05;101633.75;5055584;27;99283;-30
2022/09/17 05:39:39;;;;;;;0.13;0.00;;;;;;;11.34;76.88;101643.50;5055699;27;97760;-30
2022/09/17 05:42:05;;;;;;;2.13;0.38;;;;;;;11.36;76.88;101639.75;5056009;27;98985;-30
2022/09/17 05:44:30;;;;;;;0.20;0.10;;;;;;;11.37;76.93;101632.47;5056660;27;96808;-30
2022/09/17 05:46:55;;;;;;;1.33;0.15;;;;;;;11.34;76.77;101628.09;5055771;27;99496;-29
2022/09/17 05:49:21;;;;;;;0.30;0.13;;;;;;;11.35;77.10;101629.88;5055260;27;119943;-30
2022/09/17 05:51:47;;;;;;;1.23;0.63;;;;;;;11.34;77.23;101628.09;5055778;27;96642;-30
2022/09/17 05:54:12;;;;;;;0.80;0.22;;;;;;;11.34;77.25;101628.09;5056270;27;96898;-30
2022/09/17 05:56:37;;;;;;;1.00;0.35;;;;;;;11.35;77.03;101619.03;5055640;27;112160;-30
2022/09/17 05:59:03;;;;;;;1.80;0.35;;;;;;;11.36;77.20;101623.47;5054486;27;123153;-30
2022/09/17 06:01:28;;;;;;;2.20;0.40;;;;;;;11.38;77.37;101631.53;5055306;27;106980;-30
2022/09/17 06:03:54;;;;;;;0.88;0.30;;;;;;;11.38;77.56;101645.09;5055988;27;96741;-30
2022/09/17 06:06:19;;;;;;;7.47;0.75;;;;;;;11.39;77.80;101654.97;5055476;27;99488;-30
2022/09/17 06:08:44;;;;;;;5.05;0.63;;;;;;;11.41;77.75;101648.53;5055394;27;113827;-30
2022/09/17 06:11:10;;;;;;;2.40;0.55;;;;;;;11.44;77.45;101642.97;5055542;27;102384;-30
2022/09/17 06:13:35;;;;;;;0.75;0.50;;;;;;;11.44;77.55;101634.81;5055655;27;96734;-30
2022/09/17 06:16:02;;;;;;;0.90;0.60;;;;;;;11.51;78.04;101648.03;5055075;27;97541;-29
2022/09/17 06:18:29;;;;;;;2.33;0.63;;;;;;;11.54;77.83;101681.34;5035962;27;101457;-30
2022/09/17 06:20:56;;;;;;;1.73;0.82;;;;;;;11.54;78.19;101686.75;5037294;27;96857;-30
2022/09/17 06:23:23;;;;;;;3.20;0.80;;;;;;;11.52;78.44;101682.38;5037321;27;96871;-30
2022/09/17 06:25:56;;;;;;;8.18;1.00;;;;;;;11.51;78.29;101683.31;5036713;27;101346;-29
2022/09/17 06:28:22;;;;;;;3.33;0.80;;;;;;;11.49;78.47;101678.00;5020526;27;100495;-30
2022/09/17 06:30:47;;;;;;;4.10;0.60;;;;;;;11.51;78.58;101675.16;5037213;27;96621;-30
2022/09/17 06:33:13;;;;;;;5.40;0.98;;;;;;;11.51;78.58;101686.03;5055725;27;96820;-30
2022/09/17 06:35:39;;;;;;;5.07;0.80;;;;;;;11.54;78.34;101675.91;5054958;27;99482;-29
2022/09/17 06:38:04;;;;;;;1.65;0.77;;;;;;;11.54;78.84;101669.59;5055106;27;97340;-30
2022/09/17 06:40:30;;;;;;;3.60;0.50;;;;;;;11.52;79.02;101661.53;5054997;27;96449;-30
2022/09/17 06:42:59;;;;;;;2.72;0.40;;;;;;;11.49;78.82;101667.13;5055396;27;96769;-30
2022/09/17 06:45:28;;;;;;;0.95;0.45;;;;;;;11.44;78.93;101658.34;5036629;27;100951;-29
2022/09/17 06:47:53;;;;;;;0.98;0.43;;;;;;;11.47;79.15;101675.34;5036430;27;101023;-29
2022/09/17 06:50:19;;;;;;;2.28;0.60;;;;;;;11.47;78.94;101678.06;5055467;27;96520;-30
2022/09/17 06:52:52;;;;;;;1.15;0.22;;;;;;;11.47;79.00;101686.19;5036922;27;96571;-29
2022/09/17 06:55:18;;;;;;;0.75;0.35;;;;;;;11.43;78.56;101690.00;5036404;27;101291;-29
2022/09/17 06:57:44;;;;;;;2.13;0.28;;;;;;;11.43;78.79;101689.16;5055337;27;98130;-30
2022/09/17 07:00:11;;;;;;;0.77;0.28;;;;;;;11.47;78.36;101688.03;5036754;27;97609;-30
2022/09/17 07:02:36;;;;;;;2.75;0.17;;;;;;;11.51;78.78;101686.03;5036836;27;96848;-30
2022/09/17 07:05:02;;;;;;;1.20;0.35;;;;;;;11.56;78.74;101683.94;5054443;27;97890;-30
2022/09/17 07:07:28;;;;;;;1.35;0.20;;;;;;;11.61;78.67;101692.75;5036145;27;101175;-30
2022/09/17 07:09:53;;;;;;;0.40;0.13;;;;;;;11.60;78.64;101682.84;5054701;27;96683;-30
2022/09/17 07:12:20;;;;;;;0.52;0.15;;;;;;;11.79;78.89;101678.19;5054556;27;96808;-29
2022/09/17 07:14:46;;;;;;;2.97;0.30;;;;;;;12.11;79.04;101687.34;5036379;27;100919;-29
2022/09/17 07:17:13;;;;;;;2.28;0.30;;;;;;;12.43;77.82;101689.25;5054525;27;99174;-31
2022/09/17 07:19:38;;;;;;;1.65;0.55;;;;;;;12.69;76.96;101691.38;5035970;27;96867;-30
2022/09/17 07:22:03;;;;;;;1.17;0.43;;;;;;;12.73;76.99;101684.81;5054975;27;96880;-31
2022/09/17 07:24:29;;;;;;;0.35;0.05;;;;;;;12.63;76.30;101682.69;5053299;27;112718;-30
2022/09/17 07:26:54;;;;;;;2.83;0.45;;;;;;;12.49;76.73;101688.91;5054224;27;99039;-31
2022/09/17 07:29:22;;;;;;;2.35;0.17;;;;;;;12.31;76.82;101680.81;5054345;27;96634;-30
2022/09/17 07:31:47;;;;;;;0.10;0.08;;;;;;;12.28;77.14;101686.44;5054728;27;96822;-30
2022/09/17 07:34:12;;;;;;;0.73;0.30;;;;;;;12.25;77.31;101678.47;5054482;27;97399;-30
2022/09/17 07:36:38;;;;;;;2.33;0.47;;;;;;;12.22;77.94;101659.59;5054565;27;97860;-29
2022/09/17 07:39:03;;;;;;;0.75;0.20;;;;;;;12.31;78.04;101663.63;5054344;27;96602;-30
2022/09/17 07:41:28;;;;;;;1.27;0.25;;;;;;;12.54;77.50;101652.34;5054826;27;96733;-31
2022/09/17 07:43:54;;;;;;;2.67;0.20;;;;;;;12.89;76.18;101665.75;5054018;27;107046;-31
2022/09/17 07:46:21;;;;;;;0.28;0.08;;;;;;;13.17;75.43;101666.84;5054301;27;99240;-30
2022/09/17 07:48:47;;;;;;;1.60;0.20;;;;;;;13.44;74.60;101667.06;5054667;27;96593;-30
2022/09/17 07:51:23;;;;;;;0.00;0.00;;;;;;;13.68;73.89;101664.72;5036087;27;96885;-31
2022/09/17 07:53:52;;;;;;;0.90;0.20;;;;;;;13.89;73.52;101667.94;5035454;27;101173;-31
2022/09/17 07:56:17;;;;;;;5.10;0.40;;;;;;;14.07;73.30;101668.63;5035758;27;100790;-31
2022/09/17 07:58:44;;;;;;;4.30;0.40;;;;;;;14.24;72.44;101673.00;5054465;27;96540;-30
2022/09/17 08:01:11;;;;;;;4.20;0.38;;;;;;;14.44;72.26;101675.34;5054799;27;96512;-29
2022/09/17 08:03:38;;;;;;;1.95;0.35;;;;;;;14.62;71.88;101673.28;5039269;27;101040;-30
2022/09/17 08:06:08;;;;;;;0.88;0.28;;;;;;;14.66;71.89;101682.16;5057081;27;99945;-30
2022/09/17 08:08:35;;;;;;;1.10;0.32;;;;;;;14.68;72.26;101680.19;5057912;27;96500;-29
2022/09/17 08:11:07;;;;;;;3.00;0.25;;;;;;;14.48;72.36;101681.47;5039875;27;97016;-31
2022/09/17 08:13:33;;;;;;;3.30;0.22;;;;;;;14.30;72.76;101678.09;5038901;27;101526;-29
2022/09/17 08:16:07;;;;;;;1.17;0.20;;;;;;;14.12;72.08;101674.66;5039046;27;101410;-30
2022/09/17 08:18:33;;;;;;;0.45;0.22;;;;;;;13.96;71.94;101677.47;5038206;27;96829;-31
2022/09/17 08:21:00;;;;;;;0.65;0.22;;;;;;;14.10;71.62;101679.34;5055942;27;97149;-30
2022/09/17 08:23:28;;;;;;;1.58;0.10;;;;;;;14.08;71.93;101683.13;5036816;27;99196;-30
2022/09/17 08:25:55;;;;;;;0.70;0.10;;;;;;;14.03;71.97;101681.56;5037112;27;100963;-30
2022/09/17 08:28:22;;;;;;;0.00;0.00;;;;;;;13.97;71.44;101676.53;5038359;27;97168;-30
2022/09/17 08:30:49;;;;;;;0.30;0.13;;;;;;;13.94;71.62;101692.16;5022504;27;96806;-29
2022/09/17 08:33:14;;;;;;;0.38;0.08;;;;;;;13.94;71.97;101693.06;5038568;27;100828;-32
2022/09/17 08:35:40;;;;;;;0.00;0.00;;;;;;;14.06;72.32;101701.41;5057336;27;99263;-29
2022/09/17 08:38:06;;;;;;;0.40;0.08;;;;;;;13.99;71.63;101711.81;5056778;27;109257;-29
2022/09/17 08:40:42;;;;;;;1.35;0.30;;;;;;;13.85;72.60;101703.63;5038948;27;96816;-29
2022/09/17 08:43:16;;;;;;;0.88;0.20;;;;;;;13.62;72.34;101703.19;5038154;27;101232;-30
2022/09/17 08:45:42;;;;;;;1.15;0.00;;;;;;;13.47;72.50;101702.28;5038365;27;100910;-30
2022/09/17 08:48:13;;;;;;;0.08;0.03;;;;;;;13.37;72.16;101701.06;5056989;27;96543;-31
2022/09/17 08:50:41;;;;;;;0.22;0.00;;;;;;;13.31;72.99;101709.59;5038853;27;96768;-29
2022/09/17 08:53:20;;;;;;;1.00;0.30;;;;;;;13.29;73.29;101700.66;5038520;27;100670;-30
2022/09/17 08:55:52;;;;;;;2.58;0.20;;;;;;;13.33;73.34;101696.78;5038287;27;101444;-30
2022/09/17 08:58:38;;;;;;;0.03;0.03;;;;;;;13.34;73.07;101698.53;5038833;27;96588;-29
2022/09/17 09:01:13;;;;;;;0.00;0.00;;;;;;;13.37;73.81;101698.34;5057458;27;96649;-30
2022/09/17 09:03:51;;;;;;;2.17;0.45;;;;;;;13.41;73.56;101693.59;5038227;27;101549;-31
2022/09/17 09:06:20;;;;;;;0.40;0.15;;;;;;;13.43;73.46;101692.53;5056672;27;97749;-33
2022/09/17 09:09:02;;;;;;;2.72;0.20;;;;;;;13.54;73.35;101690.06;5056337;27;96743;-30
2022/09/17 09:11:29;;;;;;;;;;;;;;;13.69;73.26;101699.13;5057247;27;96766;-29
2022/09/17 09:14:05;;;;;;;2.25;0.13;;;;;;;13.77;72.54;101696.78;5054711;27;98038;-29
2022/09/17 09:16:36;;;;;;;0.05;0.05;;;;;;;13.84;72.75;101700.03;5038149;27;101015;-30
2022/09/17 09:19:22;;;;;;;0.10;0.10;;;;;;;13.96;71.99;101696.53;5037350;27;96842;-30
2022/09/17 09:22:11;;;;;;;0.35;0.10;;;;;;;14.14;72.49;101699.97;5038200;27;96847;-29
2022/09/17 09:24:40;;;;;;;0.00;0.00;;;;;;;14.26;70.98;101697.47;5037872;27;101159;-29
2022/09/17 09:27:18;;;;;;;1.20;0.10;;;;;;;14.24;71.30;101703.00;5056260;27;99694;-32
2022/09/17 09:30:05;;;;;;;1.67;0.10;;;;;;;14.16;70.93;101708.06;5056896;27;96598;-31
2022/09/17 09:33:13;;;;;;;1.80;0.40;;;;;;;14.21;70.19;101705.91;5038071;27;96994;-29
2022/09/17 09:35:42;;;;;;;0.35;0.08;;;;;;;14.38;70.70;101708.44;4952203;28;99941;-30
2022/09/17 09:38:07;;;;;;;2.10;0.10;;;;;;;14.67;69.81;101718.47;4935834;28;101151;-30
2022/09/17 09:40:45;;;;;;;1.33;0.10;;;;;;;14.67;69.48;101721.22;5005073;27;97008;-31
2022/09/17 09:43:20;;;;;;;1.60;0.08;;;;;;;14.45;69.14;101712.53;5037235;27;97373;-32
2022/09/17 09:46:07;;;;;;;2.05;0.35;;;;;;;14.26;70.13;101708.34;5036690;27;101156;-30
2022/09/17 09:49:03;;;;;;;0.68;0.05;;;;;;;14.10;71.02;101711.16;5055097;27;97878;-29
2022/09/17 09:51:43;;;;;;;0.50;0.10;;;;;;;13.96;70.78;101710.16;5055890;27;96597;-29
2022/09/17 09:54:08;;;;;;;0.32;0.10;;;;;;;14.16;71.36;101713.50;5056658;27;96532;-31
2022/09/17 09:56:58;;;;;;;2.22;0.25;;;;;;;14.77;70.18;101704.13;5055675;27;97483;-29
2022/09/17 09:59:25;;;;;;;4.22;0.50;;;;;;;15.16;69.31;101713.41;5037513;27;100910;-30
2022/09/17 10:01:51;;;;;;;0.80;0.10;;;;;;;15.32;69.14;101709.63;5037066;27;96650;-29
2022/09/17 10:04:27;;;;;;;2.47;0.22;;;;;;;15.23;68.74;101697.47;5037595;27;96799;-30
2022/09/17 10:07:02;;;;;;;0.00;0.00;;;;;;;15.03;68.24;101698.81;5037099;27;101006;-30
2022/09/17 10:09:31;;;;;;;0.65;0.10;;;;;;;14.98;68.55;101690.94;5055519;27;99245;-30
2022/09/17 10:12:15;;;;;;;4.15;0.43;;;;;;;15.34;67.62;101691.28;5037438;27;96898;-29
2022/09/17 10:14:43;;;;;;;1.30;0.43;;;;;;;15.66;66.99;101681.75;5055886;27;96566;-29
2022/09/17 10:17:23;;;;;;;1.10;0.28;;;;;;;15.95;66.77;101692.53;5055376;27;98112;-30
2022/09/17 10:20:01;;;;;;;2.20;0.38;;;;;;;16.43;65.90;101687.25;5037129;27;100753;-29
2022/09/17 10:22:38;;;;;;;0.93;0.20;;;;;;;16.79;65.03;101682.81;5055954;27;96615;-29
2022/09/17 10:25:17;;;;;;;0.73;0.25;;;;;;;16.85;64.48;101687.84;5055248;27;96692;-30
2022/09/17 10:27:45;;;;;;;3.22;0.40;;;;;;;16.89;63.20;101697.56;5036363;27;100984;-29
2022/09/17 10:30:11;;;;;;;1.15;0.22;;;;;;;16.51;63.93;101692.16;5036947;27;100848;-30
2022/09/17 10:32:36;;;;;;;4.22;0.60;;;;;;;16.05;64.83;101711.88;5055666;27;96606;-29
2022/09/17 10:35:13;;;;;;;3.55;0.47;;;;;;;15.66;65.53;101717.28;5055088;27;103640;-29
2022/09/17 10:37:44;;;;;;;1.45;0.30;;;;;;;15.26;66.65;101727.31;5054771;27;98114;-30
2022/09/17 10:40:18;;;;;;;1.57;0.50;;;;;;;14.95;66.54;101715.69;5054000;27;97401;-34
2022/09/17 10:42:49;;;;;;;4.40;0.52;;;;;;;14.74;67.54;101715.25;5054684;27;96644;-30
2022/09/17 10:45:25;;;;;;;0.77;0.17;;;;;;;14.61;67.55;101711.56;5037413;27;96833;-29
2022/09/17 10:47:52;;;;;;;5.38;0.82;;;;;;;14.53;68.46;101700.25;5036531;27;101046;-29
2022/09/17 10:50:20;;;;;;;2.10;0.25;;;;;;;14.75;68.40;101705.22;5036700;27;100884;-29
2022/09/17 10:52:48;;;;;;;0.98;0.43;;;;;;;15.23;67.13;101701.09;5054378;27;96637;-31
2022/09/17 10:55:28;;;;;;;3.80;0.40;;;;;;;15.70;64.95;101701.56;5036871;27;96799;-30
2022/09/17 10:57:59;;;;;;;1.10;0.15;;;;;;;16.16;63.90;101684.66;5054933;27;99487;-29
2022/09/17 11:00:28;;;;;;;0.50;0.32;;;;;;;16.44;63.58;101688.97;5054975;27;97398;-30
2022/09/17 11:03:30;;;;;;;8.93;0.63;;;;;;;16.85;62.61;101698.78;5036811;27;96648;-31
2022/09/17 11:05:56;;;;;;;;;;;;;;;16.83;63.08;101692.56;5055500;27;96886;-28
2022/09/17 11:08:47;;;;;;;1.23;0.43;;;;;;;16.42;64.21;101691.00;5054865;27;97889;-29
2022/09/17 11:11:40;;;;;;;2.10;0.40;;;;;;;16.16;64.43;101691.97;5036808;27;101144;-29
2022/09/17 11:14:16;;;;;;;1.35;0.35;;;;;;;16.45;64.67;101687.16;5036527;27;96629;-30
2022/09/17 11:16:57;;;;;;;1.58;0.17;;;;;;;16.81;62.65;101680.84;5036711;27;96754;-30
2022/09/17 11:19:39;;;;;;;1.97;0.63;;;;;;;17.22;62.52;101674.09;5035173;27;100657;-29
2022/09/17 11:22:37;;;;;;;1.48;0.32;;;;;;;17.54;61.07;101673.47;5036434;27;100901;-29
2022/09/17 11:25:14;;;;;;;1.17;0.30;;;;;;;17.88;60.53;101677.22;5054115;27;96772;-29
2022/09/17 11:27:54;;;;;;;3.47;0.45;;;;;;;18.10;59.93;101676.38;5054769;27;96639;-29
2022/09/17 11:30:22;;;;;;;2.45;0.50;;;;;;;18.31;59.91;101667.44;5036021;27;100713;-30
2022/09/17 11:33:14;;;;;;;2.60;0.30;;;;;;;18.45;58.69;101665.28;5036170;27;100897;-29
2022/09/17 11:35:49;;;;;;;1.75;0.28;;;;;;;18.55;58.79;101653.56;5055209;27;96496;-29
2022/09/17 11:38:29;;;;;;;3.10;0.57;;;;;;;18.49;58.81;101662.28;5040272;27;96903;-29
2022/09/17 11:41:03;;;;;;;1.63;0.32;;;;;;;18.21;56.31;101653.56;5039529;27;101277;-29